createdAt,value
2022-12-12T00:04:36.772Z,90.60
2022-12-12T00:09:38.952Z,90.60
2022-12-12T00:14:41.054Z,90.60
2022-12-12T00:19:44.547Z,90.70
2022-12-12T00:24:47.806Z,90.70
2022-12-12T00:29:52.488Z,90.70
2022-12-12T00:34:56.027Z,90.90
2022-12-12T00:39:58.135Z,91.00
2022-12-12T00:45:00.307Z,91.00
2022-12-12T00:50:04.214Z,91.00
2022-12-12T00:55:07.111Z,91.00
2022-12-12T01:00:12.798Z,90.90
2022-12-12T01:05:17.340Z,90.90
2022-12-12T01:10:20.096Z,90.90
2022-12-12T01:15:22.529Z,91.00
2022-12-12T01:20:27.735Z,91.10
2022-12-12T01:25:30.043Z,91.20
2022-12-12T01:30:32.178Z,91.40
2022-12-12T01:35:35.798Z,91.40
2022-12-12T01:40:37.916Z,91.40
2022-12-12T01:46:28.388Z,91.50
2022-12-12T01:51:33.033Z,91.60
2022-12-12T01:56:36.384Z,91.60
2022-12-12T02:01:39.851Z,91.60
2022-12-12T02:06:43.897Z,91.60
2022-12-12T02:11:49.237Z,91.60
2022-12-12T02:17:43.579Z,91.60
2022-12-12T02:23:19.847Z,91.60
2022-12-12T02:29:22.232Z,91.50
2022-12-12T02:34:34.154Z,91.60
2022-12-12T02:39:45.321Z,91.70
2022-12-12T02:44:56.035Z,91.60
2022-12-12T02:50:04.881Z,91.50
2022-12-12T02:55:07.840Z,91.90
2022-12-12T03:00:12.687Z,91.50
2022-12-12T03:05:39.539Z,91.50
2022-12-12T03:10:51.081Z,91.40
2022-12-12T03:15:59.637Z,91.40
2022-12-12T03:21:06.817Z,91.40
2022-12-12T03:26:14.921Z,91.40
2022-12-12T03:31:23.824Z,91.40
2022-12-12T03:36:33.046Z,91.40
2022-12-12T03:41:40.684Z,91.40
2022-12-12T03:46:48.841Z,91.30
2022-12-12T03:51:58.915Z,91.30
2022-12-12T03:57:07.566Z,91.20
2022-12-12T04:02:16.669Z,91.20
2022-12-12T04:07:24.709Z,91.20
2022-12-12T04:12:35.074Z,91.20
2022-12-12T04:17:42.766Z,91.20
2022-12-12T04:22:52.369Z,91.50
2022-12-12T04:28:00.920Z,91.10
2022-12-12T04:33:09.301Z,91.10
2022-12-12T04:38:18.771Z,91.00
2022-12-12T04:43:25.973Z,91.00
2022-12-12T04:48:37.036Z,90.90
2022-12-12T04:53:48.720Z,90.90
2022-12-12T04:58:51.288Z,90.80
2022-12-12T05:03:57.645Z,90.80
2022-12-12T05:09:01.933Z,90.70
2022-12-12T05:14:04.012Z,90.70
2022-12-12T05:19:06.509Z,90.70
2022-12-12T05:24:10.412Z,90.60
2022-12-12T05:29:12.478Z,90.70
2022-12-12T05:34:14.617Z,90.70
2022-12-12T05:39:18.080Z,90.70
2022-12-12T05:44:21.440Z,90.70
2022-12-12T05:49:23.685Z,90.80
2022-12-12T05:54:27.177Z,90.80
2022-12-12T05:59:29.429Z,90.80
2022-12-12T06:04:31.571Z,90.70
2022-12-12T06:09:35.565Z,90.70
2022-12-12T06:14:37.677Z,90.70
2022-12-12T06:19:39.894Z,90.60
2022-12-12T06:24:43.711Z,90.60
2022-12-12T06:29:45.976Z,90.40
2022-12-12T06:34:48.158Z,90.30
2022-12-12T06:39:52.280Z,90.30
2022-12-12T06:44:54.508Z,90.30
2022-12-12T06:49:56.666Z,90.30
2022-12-12T06:55:00.445Z,90.40
2022-12-12T07:00:03.445Z,90.40
2022-12-12T07:05:06.094Z,90.70
2022-12-12T07:10:10.023Z,90.30
2022-12-12T07:15:16.349Z,90.40
2022-12-12T07:20:18.714Z,90.40
2022-12-12T07:25:22.289Z,90.40
2022-12-12T07:30:24.471Z,90.40
2022-12-12T07:35:26.780Z,90.40
2022-12-12T07:40:30.657Z,90.60
2022-12-12T07:45:33.404Z,90.70
2022-12-12T07:50:35.594Z,90.70
2022-12-12T07:55:40.189Z,90.80
2022-12-12T08:00:43.382Z,90.90
2022-12-12T08:05:45.575Z,90.90
2022-12-12T08:10:49.399Z,90.70
2022-12-12T08:15:52.213Z,90.30
2022-12-12T08:20:54.334Z,90.20
2022-12-12T08:25:57.828Z,90.10
2022-12-12T08:31:01.340Z,90.10
2022-12-12T08:36:12.279Z,90.10
2022-12-12T08:41:16.442Z,89.80
2022-12-12T08:46:20.188Z,90.00
2022-12-12T08:51:22.839Z,90.10
2022-12-12T08:56:26.739Z,90.20
2022-12-12T09:01:29.048Z,90.50
2022-12-12T09:06:31.239Z,90.50
2022-12-12T09:11:34.818Z,90.50
2022-12-12T09:16:37.269Z,90.50
2022-12-12T09:21:39.448Z,90.40
2022-12-12T09:26:42.937Z,90.20
2022-12-12T09:31:45.074Z,90.20
2022-12-12T09:36:47.339Z,90.10
2022-12-12T09:41:50.967Z,90.20
2022-12-12T09:46:56.412Z,90.20
2022-12-12T09:51:59.454Z,90.30
2022-12-12T09:57:17.387Z,90.50
2022-12-12T10:02:52.699Z,90.50
2022-12-12T10:08:04.819Z,90.50
2022-12-12T10:13:17.716Z,90.40
2022-12-12T10:18:26.989Z,90.50
2022-12-12T10:23:35.920Z,90.50
2022-12-12T10:28:39.583Z,90.60
2022-12-12T10:33:54.484Z,90.40
2022-12-12T10:39:12.062Z,90.40
2022-12-12T10:44:29.917Z,90.40
2022-12-12T10:49:33.848Z,90.40
2022-12-12T10:54:43.764Z,90.80
2022-12-12T10:59:49.009Z,90.40
2022-12-12T11:05:09.594Z,90.20
2022-12-12T11:10:29.214Z,90.10
2022-12-12T11:15:44.416Z,90.00
2022-12-12T11:20:49.905Z,89.80
2022-12-12T11:25:56.774Z,89.80
2022-12-12T11:31:04.319Z,89.70
2022-12-12T11:36:07.355Z,89.70
2022-12-12T11:41:11.678Z,89.80
2022-12-12T11:46:20.212Z,89.80
2022-12-12T11:51:35.435Z,89.80
2022-12-12T11:56:46.016Z,89.80
2022-12-12T12:02:00.028Z,89.70
2022-12-12T12:07:17.374Z,89.80
2022-12-12T12:12:25.010Z,89.80
2022-12-12T12:17:44.486Z,89.90
2022-12-12T12:22:57.246Z,90.00
2022-12-12T12:28:26.459Z,90.00
2022-12-12T12:33:55.751Z,89.90
2022-12-12T12:39:10.661Z,90.00
2022-12-12T12:44:27.844Z,90.00
2022-12-12T12:49:36.690Z,90.30
2022-12-12T12:54:40.875Z,90.60
2022-12-12T12:59:47.011Z,90.50
2022-12-12T13:04:57.162Z,90.20
2022-12-12T13:10:06.674Z,89.70
2022-12-12T13:15:19.901Z,89.20
2022-12-12T13:20:25.496Z,89.20
2022-12-12T13:25:36.166Z,89.70
2022-12-12T13:30:53.447Z,89.70
2022-12-12T13:36:05.815Z,89.20
2022-12-12T13:41:09.945Z,88.90
2022-12-12T13:46:40.695Z,88.70
2022-12-12T13:51:45.649Z,86.20
2022-12-12T13:57:05.090Z,87.30
2022-12-12T14:02:31.083Z,87.10
2022-12-12T14:07:35.552Z,85.80
2022-12-12T14:12:37.813Z,86.60
2022-12-12T14:17:42.948Z,86.40
2022-12-12T14:23:24.101Z,86.30
2022-12-12T14:28:29.014Z,85.10
2022-12-12T14:34:12.911Z,85.20
2022-12-12T14:39:25.661Z,85.40
2022-12-12T14:44:36.395Z,86.20
2022-12-12T14:49:41.311Z,86.60
2022-12-12T14:54:45.052Z,86.70
2022-12-12T14:59:47.730Z,87.00
2022-12-12T15:04:53.422Z,87.10
2022-12-12T15:09:57.151Z,87.40
2022-12-12T15:14:59.863Z,87.40
2022-12-12T15:20:04.831Z,87.60
2022-12-12T15:25:18.719Z,87.50
2022-12-12T15:30:46.059Z,87.60
2022-12-12T15:35:52.278Z,87.70
2022-12-12T15:40:59.488Z,87.80
2022-12-12T15:46:04.490Z,87.80
2022-12-12T15:51:07.392Z,88.10
2022-12-12T15:56:13.196Z,88.40
2022-12-12T16:01:21.113Z,88.90
2022-12-12T16:06:25.921Z,89.20
2022-12-12T16:11:41.370Z,89.30
2022-12-12T16:16:45.416Z,89.60
2022-12-12T16:21:47.527Z,89.50
2022-12-12T16:26:51.217Z,89.20
2022-12-12T16:31:53.445Z,89.10
2022-12-12T16:36:55.579Z,89.20
2022-12-12T16:41:59.256Z,89.40
2022-12-12T16:47:01.436Z,89.70
2022-12-12T16:52:03.732Z,89.80
2022-12-12T16:57:07.437Z,89.60
2022-12-12T17:02:19.417Z,89.50
2022-12-12T17:07:21.644Z,89.60
2022-12-12T17:12:25.139Z,89.60
2022-12-12T17:17:27.283Z,89.90
2022-12-12T17:22:29.912Z,90.00
2022-12-12T17:27:33.434Z,90.10
2022-12-12T17:32:36.323Z,90.10
2022-12-12T17:37:38.742Z,90.00
2022-12-12T17:42:42.769Z,89.90
2022-12-12T17:47:44.915Z,89.80
2022-12-12T17:52:47.075Z,89.70
2022-12-12T17:57:50.626Z,89.60
2022-12-12T18:02:52.760Z,90.10
2022-12-12T18:07:54.957Z,89.40
2022-12-12T18:12:58.644Z,89.50
2022-12-12T18:18:00.804Z,89.90
2022-12-12T18:23:02.972Z,90.00
2022-12-12T18:28:06.529Z,90.00
2022-12-12T18:33:09.503Z,90.10
2022-12-12T18:38:11.717Z,90.20
2022-12-12T18:43:15.267Z,90.30
2022-12-12T18:48:20.167Z,90.30
2022-12-12T18:53:22.932Z,90.30
2022-12-12T18:58:29.133Z,90.30
2022-12-12T19:03:31.376Z,90.10
2022-12-12T19:08:33.645Z,90.10
2022-12-12T19:13:38.272Z,90.00
2022-12-12T19:18:42.837Z,89.80
2022-12-12T19:23:45.589Z,89.70
2022-12-12T19:28:49.140Z,89.50
2022-12-12T19:33:51.776Z,89.40
2022-12-12T19:38:56.918Z,89.40
2022-12-12T19:44:02.441Z,89.30
2022-12-12T19:49:06.770Z,89.40
2022-12-12T19:54:13.329Z,89.70
2022-12-12T19:59:19.066Z,90.00
2022-12-12T20:04:22.869Z,89.80
2022-12-12T20:09:27.859Z,89.80
2022-12-12T20:14:34.165Z,89.90
2022-12-12T20:19:36.335Z,89.90
2022-12-12T20:24:38.651Z,89.90
2022-12-12T20:29:45.520Z,89.80
2022-12-12T20:34:48.205Z,90.20
2022-12-12T20:39:50.367Z,89.60
2022-12-12T20:44:53.946Z,89.80
2022-12-12T20:49:56.245Z,89.60
2022-12-12T20:54:58.406Z,89.60
2022-12-12T21:00:02.006Z,89.40
2022-12-12T21:05:04.524Z,89.50
2022-12-12T21:10:07.165Z,89.60
2022-12-12T21:15:11.442Z,89.40
2022-12-12T21:20:13.508Z,89.40
2022-12-12T21:25:15.909Z,89.40
2022-12-12T21:30:20.876Z,90.10
2022-12-12T21:35:23.033Z,89.50
2022-12-12T21:40:25.318Z,89.70
2022-12-12T21:45:28.882Z,90.00
2022-12-12T21:50:31.327Z,90.00
2022-12-12T21:55:36.450Z,90.10
2022-12-12T22:00:39.992Z,90.10
2022-12-12T22:05:42.045Z,90.10
2022-12-12T22:10:44.150Z,90.20
2022-12-12T22:15:57.239Z,90.20
2022-12-12T22:21:03.926Z,90.10
2022-12-12T22:26:14.304Z,90.00
2022-12-12T22:31:18.350Z,90.00
2022-12-12T22:36:24.875Z,90.00
2022-12-12T22:41:28.582Z,90.00
2022-12-12T22:46:33.243Z,89.50
2022-12-12T22:51:35.374Z,90.00
2022-12-12T22:56:38.372Z,90.10
2022-12-12T23:01:42.897Z,90.10
2022-12-12T23:06:45.550Z,90.00
2022-12-12T23:11:47.937Z,90.00
2022-12-12T23:16:52.008Z,90.00
2022-12-12T23:21:54.079Z,90.00
2022-12-12T23:26:56.276Z,90.60
2022-12-12T23:32:00.054Z,90.10
2022-12-12T23:37:02.201Z,90.10
2022-12-12T23:42:04.373Z,90.00
2022-12-12T23:47:07.864Z,89.80
2022-12-12T23:52:09.958Z,89.60
2022-12-12T23:57:12.060Z,89.30
